Time;durP1;ratioP1;P1;durP2;ratioP2;P2;SDS_P1;SDS_P2;PMS_P1;PMS_P2;Temp;Humidity;BMP_temperature;BMP_pressure;BME280_temperature;BME280_humidity;BME280_pressure;Samples;Min_cycle;Max_cycle;Signal;HPM_P1;HPM_P2
2021/06/08 00:01:23;;;;;;;19.23;11.77;;;;;;;;;;4973115;28;20031;-76
2021/06/08 00:03:49;;;;;;;15.32;12.48;;;;;;;;;;4979877;28;20037;-76
2021/06/08 00:06:14;;;;;;;15.25;11.88;;;;;;;;;;4987644;28;20022;-77
2021/06/08 00:08:40;;;;;;;16.38;12.45;;;;;;;;;;4975797;28;20180;-76
2021/06/08 00:11:06;;;;;;;20.17;13.57;;;;;;;;;;4972470;28;20030;-76
2021/06/08 00:13:31;;;;;;;22.27;12.90;;;;;;;;;;4997124;28;20032;-75
2021/06/08 00:15:57;;;;;;;16.58;12.57;;;;;;;;;;4974329;28;20110;-77
2021/06/08 00:18:23;;;;;;;18.40;13.63;;;;;;;;;;4988047;28;20117;-76
2021/06/08 00:20:48;;;;;;;17.95;12.85;;;;;;;;;;4979844;28;20030;-75
2021/06/08 00:23:14;;;;;;;19.75;13.15;;;;;;;;;;4974677;28;20027;-76
2021/06/08 00:25:39;;;;;;;20.80;13.43;;;;;;;;;;4997849;28;20032;-75
2021/06/08 00:28:09;;;;;;;17.90;13.98;;;;;;;;;;4986653;28;20077;-76
2021/06/08 00:30:35;;;;;;;19.30;14.30;;;;;;;;;;4985917;28;20030;-76
2021/06/08 00:33:01;;;;;;;19.05;13.98;;;;;;;;;;4971676;28;20046;-76
2021/06/08 00:35:27;;;;;;;18.98;13.32;;;;;;;;;;4972099;28;20054;-76
2021/06/08 00:37:54;;;;;;;16.92;13.55;;;;;;;;;;4991231;28;20022;-75
2021/06/08 00:40:21;;;;;;;18.25;15.05;;;;;;;;;;4992132;28;20030;-76
2021/06/08 00:42:46;;;;;;;20.02;14.80;;;;;;;;;;4977345;28;20475;-75
2021/06/08 00:45:12;;;;;;;18.80;15.02;;;;;;;;;;4970828;28;20058;-77
2021/06/08 00:47:38;;;;;;;16.30;14.38;;;;;;;;;;4977298;28;20034;-76
2021/06/08 00:50:04;;;;;;;21.15;15.05;;;;;;;;;;4989293;28;20034;-75
2021/06/08 00:52:30;;;;;;;20.48;15.65;;;;;;;;;;4988325;28;20065;-75
2021/06/08 00:54:55;;;;;;;17.85;15.43;;;;;;;;;;4988913;28;20073;-75
2021/06/08 00:57:22;;;;;;;21.48;16.05;;;;;;;;;;4986669;28;20031;-76
2021/06/08 00:59:47;;;;;;;21.13;16.13;;;;;;;;;;4985605;28;20038;-75
2021/06/08 01:02:17;;;;;;;20.55;16.88;;;;;;;;;;4969491;28;20399;-76
2021/06/08 01:04:43;;;;;;;20.55;16.15;;;;;;;;;;4985921;28;20121;-76
2021/06/08 01:07:08;;;;;;;20.42;15.68;;;;;;;;;;4974534;28;20146;-75
2021/06/08 01:09:34;;;;;;;19.27;14.88;;;;;;;;;;4985718;28;20027;-75
2021/06/08 01:12:00;;;;;;;17.92;13.60;;;;;;;;;;4969430;28;20104;-77
2021/06/08 01:14:25;;;;;;;17.88;13.60;;;;;;;;;;4971941;28;20026;-76
2021/06/08 01:16:51;;;;;;;17.50;13.95;;;;;;;;;;4985323;28;20035;-76
2021/06/08 01:19:19;;;;;;;15.98;13.18;;;;;;;;;;4972560;28;20495;-75
2021/06/08 01:21:45;;;;;;;18.35;14.50;;;;;;;;;;4979888;28;20485;-75
2021/06/08 01:24:11;;;;;;;18.73;13.98;;;;;;;;;;4992903;28;20026;-76
2021/06/08 01:26:38;;;;;;;15.52;13.00;;;;;;;;;;4994186;28;20026;-76
2021/06/08 01:29:05;;;;;;;16.33;13.00;;;;;;;;;;4992707;28;20493;-75
2021/06/08 01:31:33;;;;;;;15.02;11.93;;;;;;;;;;4992491;28;20104;-74
2021/06/08 01:34:00;;;;;;;16.83;12.57;;;;;;;;;;4975088;28;20041;-76
2021/06/08 01:36:27;;;;;;;14.82;12.98;;;;;;;;;;4998584;28;20033;-76
2021/06/08 01:38:53;;;;;;;19.27;13.50;;;;;;;;;;4992512;28;20474;-77
2021/06/08 01:41:22;;;;;;;20.63;13.20;;;;;;;;;;4991822;28;20122;-75
2021/06/08 01:43:49;;;;;;;17.73;13.18;;;;;;;;;;4978265;28;20027;-76
2021/06/08 01:46:19;;;;;;;16.52;13.32;;;;;;;;;;5000593;28;20057;-76
2021/06/08 01:48:45;;;;;;;18.90;14.30;;;;;;;;;;4974274;28;20367;-76
2021/06/08 01:51:33;;;;;;;19.48;13.13;;;;;;;;;;4974866;28;20093;-76
2021/06/08 01:54:11;;;;;;;21.27;14.55;;;;;;;;;;4989651;28;20034;-75
2021/06/08 01:56:39;;;;;;;19.35;14.23;;;;;;;;;;4992751;28;20040;-75
2021/06/08 01:59:20;;;;;;;19.92;14.23;;;;;;;;;;4992065;28;20030;-75
2021/06/08 02:02:11;;;;;;;16.38;14.13;;;;;;;;;;4978809;28;20487;-75
2021/06/08 02:04:46;;;;;;;21.70;15.45;;;;;;;;;;4992675;28;20074;-75
2021/06/08 02:07:20;;;;;;;19.42;13.93;;;;;;;;;;4988172;28;20026;-76
2021/06/08 02:10:20;;;;;;;17.10;14.75;;;;;;;;;;4977080;28;20102;-76
2021/06/08 02:12:55;;;;;;;14.50;12.30;;;;;;;;;;4973831;28;20030;-75
2021/06/08 02:15:22;;;;;;;19.45;13.07;;;;;;;;;;4983819;28;20526;-75
2021/06/08 02:17:53;;;;;;;17.48;12.55;;;;;;;;;;4991606;28;20443;-75
2021/06/08 02:20:26;;;;;;;17.90;12.65;;;;;;;;;;4991585;28;20032;-75
2021/06/08 02:22:55;;;;;;;17.48;12.75;;;;;;;;;;4991553;28;20157;-76
2021/06/08 02:25:24;;;;;;;15.60;13.88;;;;;;;;;;4993213;28;20031;-75
2021/06/08 02:27:51;;;;;;;15.25;13.07;;;;;;;;;;4991739;28;20022;-74
2021/06/08 02:30:18;;;;;;;19.60;14.13;;;;;;;;;;4990136;28;20034;-75
2021/06/08 02:32:45;;;;;;;18.80;14.07;;;;;;;;;;4991045;28;20026;-78
2021/06/08 02:35:12;;;;;;;18.65;13.10;;;;;;;;;;4989668;28;20089;-75
2021/06/08 02:37:39;;;;;;;18.15;13.25;;;;;;;;;;4973494;28;20027;-75
2021/06/08 02:40:06;;;;;;;19.15;13.32;;;;;;;;;;4989074;28;20031;-75
2021/06/08 02:42:31;;;;;;;18.02;13.20;;;;;;;;;;4985623;28;20030;-76
2021/06/08 02:44:59;;;;;;;18.98;13.35;;;;;;;;;;4992345;28;20410;-74
2021/06/08 02:47:26;;;;;;;17.17;13.63;;;;;;;;;;4991387;28;20023;-75
2021/06/08 02:49:53;;;;;;;18.55;14.55;;;;;;;;;;4991258;28;20034;-75
2021/06/08 02:52:20;;;;;;;17.23;14.02;;;;;;;;;;4991200;28;20088;-76
2021/06/08 02:54:48;;;;;;;19.25;13.70;;;;;;;;;;4992853;28;20085;-75
2021/06/08 02:57:14;;;;;;;22.70;14.63;;;;;;;;;;4981738;28;20031;-75
2021/06/08 02:59:43;;;;;;;18.55;14.68;;;;;;;;;;4999619;28;20085;-75
2021/06/08 03:02:12;;;;;;;18.88;13.30;;;;;;;;;;4990345;28;20042;-76
2021/06/08 03:05:00;;;;;;;16.40;14.23;;;;;;;;;;4990572;28;20080;-75
2021/06/08 03:07:27;;;;;;;19.15;12.73;;;;;;;;;;4990689;28;20542;-75
2021/06/08 03:10:09;;;;;;;17.67;13.15;;;;;;;;;;4990276;28;20036;-75
2021/06/08 03:12:41;;;;;;;21.70;12.70;;;;;;;;;;4974707;28;20069;-74
2021/06/08 03:15:08;;;;;;;23.15;12.63;;;;;;;;;;4987634;28;20027;-74
2021/06/08 03:17:37;;;;;;;17.98;12.88;;;;;;;;;;4988284;28;20041;-75
2021/06/08 03:20:11;;;;;;;16.95;13.00;;;;;;;;;;4978134;28;20068;-75
2021/06/08 03:22:39;;;;;;;18.63;12.55;;;;;;;;;;4980551;28;20062;-75
2021/06/08 03:25:05;;;;;;;19.73;13.32;;;;;;;;;;4994541;28;20030;-75
2021/06/08 03:27:32;;;;;;;18.15;13.77;;;;;;;;;;4992556;28;20046;-74
2021/06/08 03:29:59;;;;;;;17.10;13.23;;;;;;;;;;4986697;28;20074;-75
2021/06/08 03:32:27;;;;;;;19.90;14.23;;;;;;;;;;4972783;28;20130;-75
2021/06/08 03:34:53;;;;;;;23.10;14.32;;;;;;;;;;5002767;28;20026;-75
2021/06/08 03:37:21;;;;;;;17.45;12.90;;;;;;;;;;4980216;28;20030;-75
2021/06/08 03:39:49;;;;;;;18.45;13.48;;;;;;;;;;4988268;28;20026;-76
2021/06/08 03:42:15;;;;;;;18.33;14.40;;;;;;;;;;4970718;28;20035;-76
2021/06/08 03:44:40;;;;;;;19.58;13.93;;;;;;;;;;4986778;28;20062;-74
2021/06/08 03:47:08;;;;;;;19.63;14.90;;;;;;;;;;4970473;28;20602;-77
2021/06/08 03:49:34;;;;;;;102.50;42.92;;;;;;;;;;4954720;28;20125;-76
2021/06/08 03:52:00;;;;;;;21.67;14.65;;;;;;;;;;4989947;28;20546;-75
2021/06/08 03:54:25;;;;;;;21.73;15.38;;;;;;;;;;4989892;28;20129;-76
2021/06/08 03:56:54;;;;;;;18.88;15.85;;;;;;;;;;4989511;28;20027;-76
2021/06/08 03:59:25;;;;;;;22.35;16.60;;;;;;;;;;4988265;28;20419;-75
2021/06/08 04:01:52;;;;;;;19.25;14.95;;;;;;;;;;4989412;28;20030;-76
2021/06/08 04:04:19;;;;;;;28.08;15.65;;;;;;;;;;4990045;28;20065;-75
2021/06/08 04:06:48;;;;;;;20.73;15.68;;;;;;;;;;4989595;28;20169;-75
2021/06/08 04:09:14;;;;;;;19.60;14.77;;;;;;;;;;4989175;28;20029;-76
2021/06/08 04:11:47;;;;;;;23.63;16.25;;;;;;;;;;4971518;28;20031;-75
2021/06/08 04:14:14;;;;;;;23.63;16.40;;;;;;;;;;4970155;28;20031;-75
2021/06/08 04:16:40;;;;;;;33.28;16.58;;;;;;;;;;4971125;28;20110;-74
2021/06/08 04:19:10;;;;;;;23.05;15.85;;;;;;;;;;4986367;28;20576;-75
2021/06/08 04:21:36;;;;;;;42.75;22.88;;;;;;;;;;4984786;28;20476;-75
2021/06/08 04:24:04;;;;;;;19.15;15.00;;;;;;;;;;4986973;28;20042;-76
2021/06/08 04:26:30;;;;;;;22.20;14.90;;;;;;;;;;4979452;28;20032;-76
2021/06/08 04:28:58;;;;;;;23.98;16.50;;;;;;;;;;4986675;28;20145;-75
2021/06/08 04:31:25;;;;;;;18.98;15.93;;;;;;;;;;4986801;28;20026;-76
2021/06/08 04:33:51;;;;;;;24.90;15.85;;;;;;;;;;4980640;28;20475;-76
2021/06/08 04:36:18;;;;;;;23.05;16.13;;;;;;;;;;4986683;28;20115;-76
2021/06/08 04:38:45;;;;;;;20.42;15.90;;;;;;;;;;4970940;28;20042;-76
2021/06/08 04:41:11;;;;;;;28.13;18.92;;;;;;;;;;4986646;28;20081;-76
2021/06/08 04:43:38;;;;;;;24.55;17.65;;;;;;;;;;4986286;28;20023;-76
2021/06/08 04:46:11;;;;;;;24.60;15.93;;;;;;;;;;4987416;28;20110;-75
2021/06/08 04:48:38;;;;;;;21.38;16.30;;;;;;;;;;4979210;28;20411;-75
2021/06/08 04:51:04;;;;;;;26.30;18.08;;;;;;;;;;5001835;28;20027;-75
2021/06/08 04:53:30;;;;;;;27.27;16.80;;;;;;;;;;4989916;28;20577;-76
2021/06/08 04:56:10;;;;;;;29.58;17.20;;;;;;;;;;4955707;28;20085;-77
2021/06/08 04:58:36;;;;;;;23.33;17.30;;;;;;;;;;4975055;28;20041;-77
2021/06/08 05:01:08;;;;;;;26.27;17.58;;;;;;;;;;4989325;28;20072;-76
2021/06/08 05:03:47;;;;;;;30.13;18.55;;;;;;;;;;4989055;28;20614;-75
2021/06/08 05:06:16;;;;;;;21.85;17.70;;;;;;;;;;4981887;28;20064;-74
2021/06/08 05:08:49;;;;;;;25.52;17.73;;;;;;;;;;4993761;28;20027;-75
2021/06/08 05:11:24;;;;;;;24.92;17.58;;;;;;;;;;4987373;28;20023;-77
2021/06/08 05:13:54;;;;;;;24.65;17.35;;;;;;;;;;4986131;28;20480;-79
2021/06/08 05:16:21;;;;;;;25.67;19.00;;;;;;;;;;4974172;28;20049;-77
2021/06/08 05:18:51;;;;;;;25.83;18.80;;;;;;;;;;4971143;28;20027;-76
2021/06/08 05:21:18;;;;;;;31.75;19.92;;;;;;;;;;4989494;28;20109;-75
2021/06/08 05:23:46;;;;;;;27.70;18.45;;;;;;;;;;4989297;28;20034;-76
2021/06/08 05:26:13;;;;;;;28.15;18.92;;;;;;;;;;4982810;28;20030;-76
2021/06/08 05:28:40;;;;;;;31.30;19.88;;;;;;;;;;4987152;28;20037;-77
2021/06/08 05:31:06;;;;;;;28.88;21.38;;;;;;;;;;4991541;28;20045;-77
2021/06/08 05:33:32;;;;;;;36.75;22.67;;;;;;;;;;4973786;28;20022;-77
2021/06/08 05:35:58;;;;;;;45.45;24.00;;;;;;;;;;4977604;28;20030;-78
2021/06/08 05:38:43;;;;;;;34.38;23.40;;;;;;;;;;4992322;28;20383;-78
2021/06/08 05:41:17;;;;;;;29.55;23.00;;;;;;;;;;4973744;28;20038;-79
2021/06/08 05:43:43;;;;;;;34.00;20.88;;;;;;;;;;4974710;28;20046;-78
2021/06/08 05:46:10;;;;;;;27.88;19.70;;;;;;;;;;5003206;28;20039;-79
2021/06/08 05:48:37;;;;;;;31.17;19.13;;;;;;;;;;4987977;28;20050;-76
2021/06/08 05:51:05;;;;;;;27.25;20.25;;;;;;;;;;4981839;28;20045;-78
2021/06/08 05:53:31;;;;;;;34.95;22.73;;;;;;;;;;4987720;28;20041;-78
2021/06/08 05:55:58;;;;;;;36.83;21.02;;;;;;;;;;4977518;28;20053;-78
2021/06/08 05:58:29;;;;;;;36.90;22.40;;;;;;;;;;4970278;28;20029;-80
2021/06/08 06:00:57;;;;;;;34.17;22.27;;;;;;;;;;4988636;28;20154;-77
2021/06/08 06:03:24;;;;;;;26.88;20.27;;;;;;;;;;4978882;28;20045;-76
2021/06/08 06:05:55;;;;;;;27.42;20.73;;;;;;;;;;4993988;28;20475;-77
2021/06/08 06:08:24;;;;;;;27.30;20.02;;;;;;;;;;4994071;28;20023;-78
2021/06/08 06:10:50;;;;;;;57.67;22.73;;;;;;;;;;5005858;28;20065;-77
2021/06/08 06:13:23;;;;;;;31.98;19.20;;;;;;;;;;5000838;28;20502;-78
2021/06/08 06:15:52;;;;;;;24.20;19.13;;;;;;;;;;4992157;28;20117;-77
2021/06/08 06:18:20;;;;;;;24.45;18.42;;;;;;;;;;4989811;28;20023;-78
2021/06/08 06:20:47;;;;;;;26.95;19.88;;;;;;;;;;4991339;28;20026;-78
2021/06/08 06:23:17;;;;;;;25.85;19.00;;;;;;;;;;4992892;28;20026;-77
2021/06/08 06:25:45;;;;;;;29.67;19.90;;;;;;;;;;5013600;28;20498;-76
2021/06/08 06:28:15;;;;;;;28.08;18.67;;;;;;;;;;5008956;28;20034;-79
2021/06/08 06:30:42;;;;;;;21.70;17.07;;;;;;;;;;4987423;28;20027;-78
2021/06/08 06:33:08;;;;;;;24.80;17.90;;;;;;;;;;4977261;28;20041;-79
2021/06/08 06:35:34;;;;;;;26.23;17.00;;;;;;;;;;4983735;28;20073;-74
2021/06/08 06:38:02;;;;;;;20.65;16.30;;;;;;;;;;4983565;28;20133;-76
2021/06/08 06:40:30;;;;;;;21.45;17.63;;;;;;;;;;4986735;28;20042;-77
2021/06/08 06:43:02;;;;;;;21.77;16.92;;;;;;;;;;4982437;28;20497;-77
2021/06/08 06:45:29;;;;;;;25.30;15.93;;;;;;;;;;4979956;28;20868;-75
2021/06/08 06:48:02;;;;;;;21.90;15.73;;;;;;;;;;4971323;28;20096;-76
2021/06/08 06:50:30;;;;;;;19.98;15.80;;;;;;;;;;4990606;28;20568;-77
2021/06/08 06:52:56;;;;;;;24.77;16.35;;;;;;;;;;4989573;28;20057;-77
2021/06/08 06:55:24;;;;;;;18.48;14.75;;;;;;;;;;4988506;28;20033;-76
2021/06/08 06:57:50;;;;;;;23.77;14.35;;;;;;;;;;4989140;28;20026;-76
2021/06/08 07:00:16;;;;;;;17.85;13.23;;;;;;;;;;4987675;28;20042;-78
2021/06/08 07:02:46;;;;;;;24.88;15.57;;;;;;;;;;4985057;28;20077;-77
2021/06/08 07:05:13;;;;;;;21.70;16.30;;;;;;;;;;4985296;28;20034;-76
2021/06/08 07:07:43;;;;;;;17.73;14.20;;;;;;;;;;4984478;28;20025;-76
2021/06/08 07:10:13;;;;;;;25.90;14.93;;;;;;;;;;4976874;28;20026;-76
2021/06/08 07:12:40;;;;;;;24.00;14.57;;;;;;;;;;4988567;28;20358;-76
2021/06/08 07:15:07;;;;;;;19.70;15.10;;;;;;;;;;4981008;28;20126;-76
2021/06/08 07:17:33;;;;;;;23.75;14.32;;;;;;;;;;4985228;28;20031;-76
2021/06/08 07:20:03;;;;;;;19.08;13.68;;;;;;;;;;4985776;28;21126;-76
2021/06/08 07:22:28;;;;;;;19.73;14.20;;;;;;;;;;4982362;28;20414;-76
2021/06/08 07:24:54;;;;;;;20.42;14.93;;;;;;;;;;4985151;28;20034;-77
2021/06/08 07:27:20;;;;;;;19.48;14.02;;;;;;;;;;4984169;28;20502;-77
2021/06/08 07:29:47;;;;;;;26.13;15.65;;;;;;;;;;4983640;28;20808;-76
2021/06/08 07:32:53;;;;;;;19.33;14.85;;;;;;;;;;5000464;28;20034;-75
2021/06/08 07:35:47;;;;;;;25.00;15.35;;;;;;;;;;4992064;28;20069;-77
2021/06/08 07:38:22;;;;;;;17.10;12.55;;;;;;;;;;4988255;28;20034;-76
2021/06/08 07:40:58;;;;;;;17.00;13.20;;;;;;;;;;4985988;28;20054;-77
2021/06/08 07:43:28;;;;;;;16.40;12.65;;;;;;;;;;4984702;28;20045;-77
2021/06/08 07:45:55;;;;;;;17.60;14.23;;;;;;;;;;4980608;28;20054;-76
2021/06/08 07:48:26;;;;;;;19.25;13.77;;;;;;;;;;4979209;28;20057;-75
2021/06/08 07:50:54;;;;;;;16.02;12.43;;;;;;;;;;4980225;28;20026;-77
2021/06/08 07:53:25;;;;;;;17.08;12.50;;;;;;;;;;4987062;28;20038;-75
2021/06/08 07:55:51;;;;;;;13.93;12.13;;;;;;;;;;4951444;28;20553;-77
2021/06/08 07:58:25;;;;;;;19.60;13.52;;;;;;;;;;4983699;28;20037;-76
2021/06/08 08:00:59;;;;;;;17.90;12.20;;;;;;;;;;4979893;28;20057;-76
2021/06/08 08:03:27;;;;;;;14.75;11.40;;;;;;;;;;4984236;28;20069;-76
2021/06/08 08:05:58;;;;;;;23.40;11.82;;;;;;;;;;4966011;28;20042;-77
2021/06/08 08:08:24;;;;;;;20.27;11.25;;;;;;;;;;4982263;28;20093;-76
2021/06/08 08:10:51;;;;;;;11.77;10.18;;;;;;;;;;4968361;28;20145;-78
2021/06/08 08:13:25;;;;;;;13.02;9.95;;;;;;;;;;4982189;28;20582;-78
2021/06/08 08:15:53;;;;;;;13.38;9.95;;;;;;;;;;4982802;28;20129;-78
2021/06/08 08:18:22;;;;;;;11.23;10.02;;;;;;;;;;4967858;28;20038;-76
2021/06/08 08:20:58;;;;;;;14.30;10.88;;;;;;;;;;4983903;28;20038;-77
2021/06/08 08:23:28;;;;;;;16.50;11.50;;;;;;;;;;4986622;28;20089;-76
2021/06/08 08:26:01;;;;;;;14.90;10.57;;;;;;;;;;4983329;28;20145;-78
2021/06/08 08:28:27;;;;;;;17.15;11.85;;;;;;;;;;4981862;28;20781;-76
2021/06/08 08:30:57;;;;;;;17.30;12.48;;;;;;;;;;4981450;28;20038;-78
2021/06/08 08:33:24;;;;;;;12.55;10.43;;;;;;;;;;4983521;28;20026;-76
2021/06/08 08:35:50;;;;;;;21.27;12.32;;;;;;;;;;4985607;28;20097;-75
2021/06/08 08:38:17;;;;;;;16.38;11.32;;;;;;;;;;4984177;28;20432;-78
2021/06/08 08:40:43;;;;;;;13.45;11.13;;;;;;;;;;4988420;28;20068;-75
2021/06/08 08:43:09;;;;;;;11.98;9.82;;;;;;;;;;4986943;28;20049;-77
2021/06/08 08:45:34;;;;;;;13.70;8.98;;;;;;;;;;4982372;28;20507;-75
2021/06/08 08:48:00;;;;;;;12.88;10.02;;;;;;;;;;4984057;28;20030;-75
2021/06/08 08:50:27;;;;;;;11.85;10.43;;;;;;;;;;4985235;28;20066;-77
2021/06/08 08:52:58;;;;;;;19.13;11.05;;;;;;;;;;4986999;28;20022;-77
2021/06/08 08:55:27;;;;;;;15.30;9.13;;;;;;;;;;4984768;28;20041;-79
2021/06/08 08:57:55;;;;;;;18.73;11.10;;;;;;;;;;4984781;28;20049;-76
2021/06/08 09:00:22;;;;;;;16.15;9.65;;;;;;;;;;4982247;28;20042;-76
2021/06/08 09:02:49;;;;;;;12.55;9.93;;;;;;;;;;4998509;28;20034;-77
2021/06/08 09:05:15;;;;;;;11.93;9.30;;;;;;;;;;4980684;28;20039;-77
2021/06/08 09:07:41;;;;;;;13.32;8.60;;;;;;;;;;4982793;28;20088;-76
2021/06/08 09:10:09;;;;;;;9.15;7.60;;;;;;;;;;4988410;28;20034;-76
2021/06/08 09:12:36;;;;;;;13.57;8.80;;;;;;;;;;4983605;28;20034;-77
2021/06/08 09:15:07;;;;;;;11.10;8.10;;;;;;;;;;4985039;28;20030;-75
2021/06/08 09:17:34;;;;;;;10.35;8.95;;;;;;;;;;4984862;28;20037;-77
2021/06/08 09:20:03;;;;;;;11.90;8.63;;;;;;;;;;4966853;28;20072;-76
2021/06/08 09:22:49;;;;;;;8.73;7.90;;;;;;;;;;4983163;28;20038;-76
2021/06/08 09:25:38;;;;;;;11.80;8.90;;;;;;;;;;4979375;28;20160;-77
2021/06/08 09:28:45;;;;;;;12.20;7.78;;;;;;;;;;4979494;28;20037;-75
2021/06/08 09:31:21;;;;;;;10.50;9.10;;;;;;;;;;4999946;28;20103;-76
2021/06/08 09:34:07;;;;;;;11.13;9.52;;;;;;;;;;4979294;28;20041;-74
2021/06/08 09:36:32;;;;;;;9.35;7.57;;;;;;;;;;4986143;28;20058;-76
2021/06/08 09:39:05;;;;;;;15.35;9.75;;;;;;;;;;4981906;28;20129;-77
2021/06/08 09:41:41;;;;;;;12.18;8.88;;;;;;;;;;4986059;28;20117;-77
2021/06/08 09:44:12;;;;;;;11.88;10.57;;;;;;;;;;4987375;28;20026;-75
2021/06/08 09:46:54;;;;;;;14.20;9.80;;;;;;;;;;4986890;28;20046;-76
2021/06/08 09:49:31;;;;;;;15.07;10.40;;;;;;;;;;4982449;28;20053;-76
2021/06/08 09:52:05;;;;;;;11.63;10.43;;;;;;;;;;4986571;28;20042;-76
2021/06/08 09:54:31;;;;;;;10.98;9.13;;;;;;;;;;4987190;28;20128;-77
2021/06/08 09:57:29;;;;;;;12.85;9.63;;;;;;;;;;4988878;28;20679;-76
2021/06/08 10:00:09;;;;;;;10.85;9.07;;;;;;;;;;4984766;28;20085;-75
2021/06/08 10:02:44;;;;;;;10.90;9.23;;;;;;;;;;4955455;28;20172;-76
2021/06/08 10:05:28;;;;;;;11.38;9.60;;;;;;;;;;4988973;28;20026;-76
2021/06/08 10:08:15;;;;;;;14.45;8.23;;;;;;;;;;4986804;28;20034;-78
2021/06/08 10:10:49;;;;;;;10.65;8.38;;;;;;;;;;4987351;28;20041;-77
2021/06/08 10:13:18;;;;;;;14.80;8.52;;;;;;;;;;4990174;28;20026;-78
2021/06/08 10:15:50;;;;;;;9.25;8.02;;;;;;;;;;4986938;28;20034;-76
2021/06/08 10:18:17;;;;;;;11.80;8.00;;;;;;;;;;4986973;28;20019;-78
2021/06/08 10:20:49;;;;;;;8.77;7.50;;;;;;;;;;4985181;28;20030;-78
2021/06/08 10:23:29;;;;;;;10.98;7.53;;;;;;;;;;4986042;28;20030;-77
2021/06/08 10:26:02;;;;;;;10.48;8.15;;;;;;;;;;4984271;28;20109;-77
2021/06/08 10:28:29;;;;;;;8.52;7.60;;;;;;;;;;4986858;28;20054;-76
2021/06/08 10:30:56;;;;;;;8.27;7.47;;;;;;;;;;4986331;28;20073;-79
2021/06/08 10:33:23;;;;;;;10.57;8.18;;;;;;;;;;4986786;28;20526;-76
2021/06/08 10:35:49;;;;;;;11.23;6.95;;;;;;;;;;4985843;28;20507;-77
2021/06/08 10:38:16;;;;;;;9.18;7.22;;;;;;;;;;4993901;28;20578;-75
2021/06/08 10:40:43;;;;;;;9.13;8.23;;;;;;;;;;4991953;28;20400;-77
2021/06/08 10:43:18;;;;;;;8.77;7.13;;;;;;;;;;5000779;28;20037;-77
2021/06/08 10:45:44;;;;;;;8.82;7.50;;;;;;;;;;4991714;28;20500;-76
2021/06/08 10:48:18;;;;;;;7.75;6.85;;;;;;;;;;4989067;28;20085;-76
2021/06/08 10:50:47;;;;;;;12.05;6.53;;;;;;;;;;4981869;28;20113;-76
2021/06/08 10:53:34;;;;;;;7.50;6.72;;;;;;;;;;5007161;28;20088;-78
2021/06/08 10:56:00;;;;;;;8.90;6.55;;;;;;;;;;4994148;28;20061;-78
2021/06/08 10:58:55;;;;;;;8.95;6.47;;;;;;;;;;4992619;28;20038;-77
2021/06/08 11:01:41;;;;;;;12.43;6.97;;;;;;;;;;4997403;28;20034;-77
2021/06/08 11:04:19;;;;;;;8.23;7.20;;;;;;;;;;4991109;28;20061;-77
2021/06/08 11:06:51;;;;;;;14.07;8.27;;;;;;;;;;4998876;28;20034;-77
2021/06/08 11:09:23;;;;;;;9.63;6.78;;;;;;;;;;4989854;28;20105;-78
2021/06/08 11:11:58;;;;;;;12.65;6.40;;;;;;;;;;5008134;28;20139;-77
2021/06/08 11:14:34;;;;;;;9.68;6.82;;;;;;;;;;4990451;28;20038;-79
2021/06/08 11:17:13;;;;;;;11.50;7.68;;;;;;;;;;4986881;28;20122;-77
2021/06/08 11:22:08;;;;;;;10.95;8.02;;;;;;;;;;4985012;28;20030;-75
2021/06/08 11:24:38;;;;;;;9.60;7.65;;;;;;;;;;4983987;28;20042;-79
2021/06/08 11:27:06;;;;;;;8.38;6.95;;;;;;;;;;4982903;28;20026;-74
2021/06/08 11:29:50;;;;;;;16.63;9.50;;;;;;;;;;4982950;28;20453;-77
2021/06/08 11:32:32;;;;;;;8.18;6.95;;;;;;;;;;4980964;28;20026;-77
2021/06/08 11:35:19;;;;;;;8.90;7.13;;;;;;;;;;4982628;28;20038;-79
2021/06/08 11:37:48;;;;;;;7.75;6.85;;;;;;;;;;4978984;28;20145;-75
2021/06/08 11:40:38;;;;;;;8.18;7.38;;;;;;;;;;4978715;28;20042;-77
2021/06/08 11:43:29;;;;;;;8.02;6.88;;;;;;;;;;4983818;28;20455;-76
2021/06/08 11:46:03;;;;;;;;;;;;;;;;;;4984611;28;20104;-75
2021/06/08 11:48:34;;;;;;;7.85;6.95;;;;;;;;;;4984613;28;20032;-78
2021/06/08 11:51:03;;;;;;;8.82;6.80;;;;;;;;;;4949437;28;20065;-75
2021/06/08 11:53:32;;;;;;;7.55;6.82;;;;;;;;;;4983280;28;20034;-75
2021/06/08 11:56:09;;;;;;;7.43;6.68;;;;;;;;;;4981598;28;20034;-75
2021/06/08 11:58:36;;;;;;;11.77;6.72;;;;;;;;;;4999013;28;20041;-76
2021/06/08 12:01:03;;;;;;;9.45;7.53;;;;;;;;;;4984044;28;20095;-77
2021/06/08 12:03:37;;;;;;;9.68;7.47;;;;;;;;;;4981434;28;20169;-76
2021/06/08 12:06:06;;;;;;;8.18;7.38;;;;;;;;;;4990673;28;20038;-76
2021/06/08 12:08:34;;;;;;;12.07;7.65;;;;;;;;;;4982705;28;20066;-75
2021/06/08 12:11:15;;;;;;;10.93;7.35;;;;;;;;;;4983071;28;20031;-75
2021/06/08 12:13:42;;;;;;;8.00;7.20;;;;;;;;;;4996670;28;20386;-76
2021/06/08 12:16:12;;;;;;;39.83;9.45;;;;;;;;;;4979724;28;20061;-76
2021/06/08 12:18:38;;;;;;;11.50;6.90;;;;;;;;;;4979961;28;20061;-75
2021/06/08 12:21:15;;;;;;;14.20;7.90;;;;;;;;;;4985816;28;20538;-77
2021/06/08 12:23:41;;;;;;;10.40;6.82;;;;;;;;;;4983472;28;20030;-78
2021/06/08 12:26:26;;;;;;;13.75;7.30;;;;;;;;;;4980641;28;20052;-76
2021/06/08 12:29:04;;;;;;;10.20;6.38;;;;;;;;;;4983490;28;20041;-76
2021/06/08 12:31:31;;;;;;;10.68;7.13;;;;;;;;;;4983550;28;20053;-75
2021/06/08 12:33:57;;;;;;;8.95;5.72;;;;;;;;;;4970212;28;20079;-74
2021/06/08 12:36:24;;;;;;;9.48;5.60;;;;;;;;;;4985213;28;20173;-75
2021/06/08 12:38:52;;;;;;;9.23;5.85;;;;;;;;;;4984153;28;20101;-76
2021/06/08 12:41:22;;;;;;;6.93;5.55;;;;;;;;;;4984429;28;20056;-75
2021/06/08 12:43:56;;;;;;;8.32;5.18;;;;;;;;;;4981206;28;20030;-75
2021/06/08 12:46:36;;;;;;;8.38;5.72;;;;;;;;;;4984914;28;20462;-76
2021/06/08 12:49:17;;;;;;;7.10;5.57;;;;;;;;;;4996374;28;20043;-76
2021/06/08 12:51:44;;;;;;;;;;;;;;;;;;4981604;28;20054;-76
2021/06/08 12:54:26;;;;;;;10.05;5.40;;;;;;;;;;4981328;28;19917;-77
2021/06/08 12:56:53;;;;;;;6.40;5.60;;;;;;;;;;4981357;28;20027;-75
2021/06/08 12:59:26;;;;;;;8.10;4.93;;;;;;;;;;4982886;28;20057;-76
2021/06/08 13:01:54;;;;;;;8.02;6.18;;;;;;;;;;4981826;28;20089;-75
2021/06/08 13:04:22;;;;;;;5.68;5.10;;;;;;;;;;4977428;28;20078;-78
2021/06/08 13:06:54;;;;;;;7.63;4.80;;;;;;;;;;4963746;28;20031;-76
2021/06/08 13:09:22;;;;;;;7.00;5.22;;;;;;;;;;4981730;28;20037;-75
2021/06/08 13:11:47;;;;;;;10.43;5.40;;;;;;;;;;4963568;28;20568;-76
2021/06/08 13:14:17;;;;;;;6.72;5.00;;;;;;;;;;4977866;28;20122;-76
2021/06/08 13:16:43;;;;;;;5.65;5.07;;;;;;;;;;4987707;28;20093;-77
2021/06/08 13:19:22;;;;;;;6.85;5.07;;;;;;;;;;4978882;28;20428;-76
2021/06/08 13:21:54;;;;;;;15.37;6.90;;;;;;;;;;4980448;28;20034;-75
2021/06/08 13:24:24;;;;;;;5.80;4.40;;;;;;;;;;4982868;28;20046;-75
2021/06/08 13:27:15;;;;;;;5.45;4.72;;;;;;;;;;4981075;28;20118;-76
2021/06/08 13:29:43;;;;;;;9.73;4.70;;;;;;;;;;4969633;28;20125;-77
2021/06/08 13:32:20;;;;;;;6.78;4.90;;;;;;;;;;4982463;28;20129;-74
2021/06/08 13:35:03;;;;;;;7.15;4.57;;;;;;;;;;4980961;28;20087;-76
2021/06/08 13:37:29;;;;;;;10.77;5.63;;;;;;;;;;4995530;28;20031;-75
2021/06/08 13:39:54;;;;;;;4.97;4.45;;;;;;;;;;4985334;28;20038;-76
2021/06/08 13:42:21;;;;;;;7.53;4.50;;;;;;;;;;4981339;28;20049;-75
2021/06/08 13:45:09;;;;;;;7.40;4.45;;;;;;;;;;4979637;28;20077;-76
2021/06/08 13:47:40;;;;;;;8.23;4.60;;;;;;;;;;4981282;28;20124;-75
2021/06/08 13:50:20;;;;;;;6.13;3.95;;;;;;;;;;4981960;28;20034;-76
2021/06/08 13:53:00;;;;;;;6.57;4.38;;;;;;;;;;4980775;28;20616;-77
2021/06/08 13:55:27;;;;;;;4.90;4.05;;;;;;;;;;4979162;28;20069;-75
2021/06/08 14:01:08;;;;;;;4.78;4.20;;;;;;;;;;4996181;28;20101;-75
2021/06/08 14:03:34;;;;;;;6.55;4.10;;;;;;;;;;4984285;28;20045;-76
2021/06/08 14:06:16;;;;;;;6.65;5.10;;;;;;;;;;4983994;28;20035;-75
2021/06/08 14:08:54;;;;;;;5.32;3.97;;;;;;;;;;4979182;28;20080;-75
2021/06/08 14:11:37;;;;;;;4.40;4.07;;;;;;;;;;5005171;28;20026;-75
2021/06/08 14:14:05;;;;;;;6.78;4.82;;;;;;;;;;4981656;28;20026;-76
2021/06/08 14:16:32;;;;;;;10.07;4.80;;;;;;;;;;4992190;28;20217;-76
2021/06/08 14:19:00;;;;;;;5.35;4.10;;;;;;;;;;4979813;28;20564;-75
2021/06/08 14:21:25;;;;;;;6.80;4.07;;;;;;;;;;4981326;28;20082;-78
2021/06/08 14:23:55;;;;;;;5.18;3.80;;;;;;;;;;4979369;28;20031;-76
2021/06/08 14:26:27;;;;;;;;;;;;;;;;;;5003891;28;20049;-75
2021/06/08 14:28:57;;;;;;;6.78;4.25;;;;;;;;;;4996973;28;19921;-77
2021/06/08 14:31:24;;;;;;;7.28;4.15;;;;;;;;;;4998711;28;20084;-77
2021/06/08 14:33:49;;;;;;;5.63;4.20;;;;;;;;;;4989670;28;20486;-78
2021/06/08 14:36:15;;;;;;;4.90;4.00;;;;;;;;;;4975687;28;20038;-76
2021/06/08 14:38:41;;;;;;;4.40;4.00;;;;;;;;;;4988649;28;20459;-76
2021/06/08 14:41:07;;;;;;;4.60;4.20;;;;;;;;;;4995768;28;20030;-77
2021/06/08 14:43:33;;;;;;;4.97;4.57;;;;;;;;;;4980299;28;20027;-78
2021/06/08 14:45:58;;;;;;;7.65;4.45;;;;;;;;;;4980878;28;20035;-78
2021/06/08 14:48:24;;;;;;;3.95;3.53;;;;;;;;;;4980736;28;20411;-77
2021/06/08 14:50:50;;;;;;;7.30;5.05;;;;;;;;;;4981707;28;20130;-77